sensor_id;sensor_type;location;lat;lon;timestamp;temperature;humidity
66140;DHT22;52945;51.908;8.364;2022-09-23T00:02:28;14.70;57.50
66140;DHT22;52945;51.908;8.364;2022-09-23T00:05:30;14.70;57.50
66140;DHT22;52945;51.908;8.364;2022-09-23T00:08:31;14.60;57.60
66140;DHT22;52945;51.908;8.364;2022-09-23T00:11:32;14.60;57.40
66140;DHT22;52945;51.908;8.364;2022-09-23T00:14:32;14.50;57.40
66140;DHT22;52945;51.908;8.364;2022-09-23T00:17:33;14.60;57.50
66140;DHT22;52945;51.908;8.364;2022-09-23T00:20:34;14.40;57.50
66140;DHT22;52945;51.908;8.364;2022-09-23T00:23:38;14.40;57.70
66140;DHT22;52945;51.908;8.364;2022-09-23T00:26:39;14.30;58.00
66140;DHT22;52945;51.908;8.364;2022-09-23T00:29:40;14.30;57.80
66140;DHT22;52945;51.908;8.364;2022-09-23T00:32:41;14.30;58.10
66140;DHT22;52945;51.908;8.364;2022-09-23T00:35:41;14.30;57.90
66140;DHT22;52945;51.908;8.364;2022-09-23T00:38:43;14.30;57.90
66140;DHT22;52945;51.908;8.364;2022-09-23T00:41:44;14.20;57.60
66140;DHT22;52945;51.908;8.364;2022-09-23T00:44:55;14.20;57.90
66140;DHT22;52945;51.908;8.364;2022-09-23T00:47:58;14.20;57.90
66140;DHT22;52945;51.908;8.364;2022-09-23T00:51:01;14.10;57.90
66140;DHT22;52945;51.908;8.364;2022-09-23T00:54:02;14.20;58.10
66140;DHT22;52945;51.908;8.364;2022-09-23T00:57:02;14.10;58.10
66140;DHT22;52945;51.908;8.364;2022-09-23T01:00:07;14.00;58.00
66140;DHT22;52945;51.908;8.364;2022-09-23T01:03:08;14.00;58.00
66140;DHT22;52945;51.908;8.364;2022-09-23T01:06:10;13.90;58.10
66140;DHT22;52945;51.908;8.364;2022-09-23T01:09:11;13.90;58.40
66140;DHT22;52945;51.908;8.364;2022-09-23T01:12:34;13.80;58.70
66140;DHT22;52945;51.908;8.364;2022-09-23T01:18:48;13.90;58.10
66140;DHT22;52945;51.908;8.364;2022-09-23T01:32:12;13.70;58.40
66140;DHT22;52945;51.908;8.364;2022-09-23T01:35:32;13.70;58.20
66140;DHT22;52945;51.908;8.364;2022-09-23T01:38:43;13.70;58.50
66140;DHT22;52945;51.908;8.364;2022-09-23T01:45:37;13.70;58.50
66140;DHT22;52945;51.908;8.364;2022-09-23T01:56:02;13.50;58.80
66140;DHT22;52945;51.908;8.364;2022-09-23T01:59:13;13.50;58.90
66140;DHT22;52945;51.908;8.364;2022-09-23T02:02:33;13.50;58.80
66140;DHT22;52945;51.908;8.364;2022-09-23T02:06:11;13.50;59.00
66140;DHT22;52945;51.908;8.364;2022-09-23T02:09:17;13.40;58.90
66140;DHT22;52945;51.908;8.364;2022-09-23T02:12:20;13.50;59.10
66140;DHT22;52945;51.908;8.364;2022-09-23T02:15:33;13.50;59.10
66140;DHT22;52945;51.908;8.364;2022-09-23T02:18:45;13.40;59.00
66140;DHT22;52945;51.908;8.364;2022-09-23T02:21:52;13.50;59.20
66140;DHT22;52945;51.908;8.364;2022-09-23T02:24:55;13.30;59.30
66140;DHT22;52945;51.908;8.364;2022-09-23T02:31:24;13.30;59.60
66140;DHT22;52945;51.908;8.364;2022-09-23T02:41:14;13.30;59.60
66140;DHT22;52945;51.908;8.364;2022-09-23T02:44:17;13.30;59.80
66140;DHT22;52945;51.908;8.364;2022-09-23T02:47:21;13.20;59.60
66140;DHT22;52945;51.908;8.364;2022-09-23T02:50:24;13.20;59.70
66140;DHT22;52945;51.908;8.364;2022-09-23T02:53:24;13.10;59.80
66140;DHT22;52945;51.908;8.364;2022-09-23T02:56:25;13.20;59.80
66140;DHT22;52945;51.908;8.364;2022-09-23T02:59:26;13.10;59.90
66140;DHT22;52945;51.908;8.364;2022-09-23T03:02:51;13.10;60.00
66140;DHT22;52945;51.908;8.364;2022-09-23T03:06:02;13.00;60.00
66140;DHT22;52945;51.908;8.364;2022-09-23T03:09:26;13.00;60.40
66140;DHT22;52945;51.908;8.364;2022-09-23T03:12:51;12.90;60.40
66140;DHT22;52945;51.908;8.364;2022-09-23T03:19:29;13.00;60.20
66140;DHT22;52945;51.908;8.364;2022-09-23T03:22:44;12.90;60.40
66140;DHT22;52945;51.908;8.364;2022-09-23T03:25:47;13.00;60.40
66140;DHT22;52945;51.908;8.364;2022-09-23T03:28:49;12.90;60.40
66140;DHT22;52945;51.908;8.364;2022-09-23T03:31:50;13.00;60.40
66140;DHT22;52945;51.908;8.364;2022-09-23T03:34:51;13.00;60.30
66140;DHT22;52945;51.908;8.364;2022-09-23T03:38:00;12.90;60.20
66140;DHT22;52945;51.908;8.364;2022-09-23T03:41:02;12.90;60.20
66140;DHT22;52945;51.908;8.364;2022-09-23T03:44:04;12.90;60.40
66140;DHT22;52945;51.908;8.364;2022-09-23T03:47:07;12.90;60.40
66140;DHT22;52945;51.908;8.364;2022-09-23T03:50:08;12.90;60.60
66140;DHT22;52945;51.908;8.364;2022-09-23T03:53:08;12.90;60.60
66140;DHT22;52945;51.908;8.364;2022-09-23T03:56:13;12.90;60.50
66140;DHT22;52945;51.908;8.364;2022-09-23T03:59:14;12.80;60.60
66140;DHT22;52945;51.908;8.364;2022-09-23T04:02:16;12.80;60.60
66140;DHT22;52945;51.908;8.364;2022-09-23T04:05:17;12.80;60.80
66140;DHT22;52945;51.908;8.364;2022-09-23T04:08:17;12.70;60.80
66140;DHT22;52945;51.908;8.364;2022-09-23T04:11:18;12.70;60.90
66140;DHT22;52945;51.908;8.364;2022-09-23T04:14:20;12.70;60.90
66140;DHT22;52945;51.908;8.364;2022-09-23T04:17:21;12.70;60.90
66140;DHT22;52945;51.908;8.364;2022-09-23T04:20:21;12.60;61.10
66140;DHT22;52945;51.908;8.364;2022-09-23T04:23:23;12.60;61.20
66140;DHT22;52945;51.908;8.364;2022-09-23T04:26:24;12.60;61.30
66140;DHT22;52945;51.908;8.364;2022-09-23T04:29:25;12.60;61.20
66140;DHT22;52945;51.908;8.364;2022-09-23T04:32:25;12.60;61.30
66140;DHT22;52945;51.908;8.364;2022-09-23T04:35:26;12.60;61.40
66140;DHT22;52945;51.908;8.364;2022-09-23T04:38:27;12.60;61.30
66140;DHT22;52945;51.908;8.364;2022-09-23T04:41:27;12.60;61.50
66140;DHT22;52945;51.908;8.364;2022-09-23T04:44:28;12.60;61.40
66140;DHT22;52945;51.908;8.364;2022-09-23T04:47:30;12.60;61.20
66140;DHT22;52945;51.908;8.364;2022-09-23T04:50:32;12.60;61.10
66140;DHT22;52945;51.908;8.364;2022-09-23T04:53:34;12.60;61.20
66140;DHT22;52945;51.908;8.364;2022-09-23T04:56:35;12.60;61.20
66140;DHT22;52945;51.908;8.364;2022-09-23T04:59:36;12.60;61.40
66140;DHT22;52945;51.908;8.364;2022-09-23T05:02:42;12.60;61.10
66140;DHT22;52945;51.908;8.364;2022-09-23T05:05:42;12.60;60.90
66140;DHT22;52945;51.908;8.364;2022-09-23T05:08:51;12.60;61.10
66140;DHT22;52945;51.908;8.364;2022-09-23T05:11:52;12.60;61.20
66140;DHT22;52945;51.908;8.364;2022-09-23T05:14:52;12.50;61.20
66140;DHT22;52945;51.908;8.364;2022-09-23T05:17:56;12.50;61.30
66140;DHT22;52945;51.908;8.364;2022-09-23T05:20:57;12.50;61.20
66140;DHT22;52945;51.908;8.364;2022-09-23T05:23:58;12.50;61.30
66140;DHT22;52945;51.908;8.364;2022-09-23T05:26:59;12.40;61.40
66140;DHT22;52945;51.908;8.364;2022-09-23T05:30:00;12.40;61.60
66140;DHT22;52945;51.908;8.364;2022-09-23T05:33:01;12.50;61.60
66140;DHT22;52945;51.908;8.364;2022-09-23T05:36:03;12.40;61.70
66140;DHT22;52945;51.908;8.364;2022-09-23T05:39:05;12.40;61.70
66140;DHT22;52945;51.908;8.364;2022-09-23T05:42:06;12.40;61.50
66140;DHT22;52945;51.908;8.364;2022-09-23T05:45:07;12.40;61.50
66140;DHT22;52945;51.908;8.364;2022-09-23T05:48:07;12.40;61.50
66140;DHT22;52945;51.908;8.364;2022-09-23T05:51:12;12.30;61.70
66140;DHT22;52945;51.908;8.364;2022-09-23T05:54:13;12.30;61.80
66140;DHT22;52945;51.908;8.364;2022-09-23T05:57:13;12.30;61.70
66140;DHT22;52945;51.908;8.364;2022-09-23T06:00:14;12.30;61.90
66140;DHT22;52945;51.908;8.364;2022-09-23T06:03:18;12.30;62.10
66140;DHT22;52945;51.908;8.364;2022-09-23T06:06:21;12.30;62.20
66140;DHT22;52945;51.908;8.364;2022-09-23T06:09:23;12.30;62.20
66140;DHT22;52945;51.908;8.364;2022-09-23T06:12:24;12.30;62.20
66140;DHT22;52945;51.908;8.364;2022-09-23T06:15:24;12.30;62.30
66140;DHT22;52945;51.908;8.364;2022-09-23T06:18:25;12.40;62.30
66140;DHT22;52945;51.908;8.364;2022-09-23T06:21:26;12.30;62.30
66140;DHT22;52945;51.908;8.364;2022-09-23T06:24:26;12.40;62.20
66140;DHT22;52945;51.908;8.364;2022-09-23T06:27:27;12.30;62.50
66140;DHT22;52945;51.908;8.364;2022-09-23T06:30:28;12.40;62.60
66140;DHT22;52945;51.908;8.364;2022-09-23T06:33:29;12.40;62.70
66140;DHT22;52945;51.908;8.364;2022-09-23T06:36:30;12.40;62.70
66140;DHT22;52945;51.908;8.364;2022-09-23T06:39:31;12.50;62.80
66140;DHT22;52945;51.908;8.364;2022-09-23T06:42:31;12.50;62.60
66140;DHT22;52945;51.908;8.364;2022-09-23T06:45:32;12.60;62.50
66140;DHT22;52945;51.908;8.364;2022-09-23T06:48:33;12.50;62.60
66140;DHT22;52945;51.908;8.364;2022-09-23T06:51:34;12.60;62.60
66140;DHT22;52945;51.908;8.364;2022-09-23T06:54:35;12.70;62.70
66140;DHT22;52945;51.908;8.364;2022-09-23T06:57:37;12.60;62.50
66140;DHT22;52945;51.908;8.364;2022-09-23T07:00:38;12.70;62.50
66140;DHT22;52945;51.908;8.364;2022-09-23T07:03:38;12.80;62.30
66140;DHT22;52945;51.908;8.364;2022-09-23T07:06:39;12.90;62.20
66140;DHT22;52945;51.908;8.364;2022-09-23T07:09:40;13.00;61.90
66140;DHT22;52945;51.908;8.364;2022-09-23T07:12:41;13.10;61.70
66140;DHT22;52945;51.908;8.364;2022-09-23T07:15:41;13.10;61.70
66140;DHT22;52945;51.908;8.364;2022-09-23T07:18:47;13.20;61.70
66140;DHT22;52945;51.908;8.364;2022-09-23T07:21:48;13.20;61.50
66140;DHT22;52945;51.908;8.364;2022-09-23T07:24:49;13.30;61.70
66140;DHT22;52945;51.908;8.364;2022-09-23T07:27:49;13.40;61.40
66140;DHT22;52945;51.908;8.364;2022-09-23T07:30:50;13.40;61.30
66140;DHT22;52945;51.908;8.364;2022-09-23T07:33:56;13.60;61.20
66140;DHT22;52945;51.908;8.364;2022-09-23T07:36:57;13.70;61.00
66140;DHT22;52945;51.908;8.364;2022-09-23T07:39:57;13.80;60.50
66140;DHT22;52945;51.908;8.364;2022-09-23T07:42:58;14.00;60.50
66140;DHT22;52945;51.908;8.364;2022-09-23T07:46:00;14.20;60.50
66140;DHT22;52945;51.908;8.364;2022-09-23T07:49:03;14.30;59.60
66140;DHT22;52945;51.908;8.364;2022-09-23T07:52:04;14.40;59.00
66140;DHT22;52945;51.908;8.364;2022-09-23T07:55:05;14.60;58.90
66140;DHT22;52945;51.908;8.364;2022-09-23T07:58:06;14.70;58.20
66140;DHT22;52945;51.908;8.364;2022-09-23T08:01:08;14.70;58.20
66140;DHT22;52945;51.908;8.364;2022-09-23T08:04:30;14.80;58.30
66140;DHT22;52945;51.908;8.364;2022-09-23T08:07:31;14.80;57.40
66140;DHT22;52945;51.908;8.364;2022-09-23T08:10:33;14.80;57.60
66140;DHT22;52945;51.908;8.364;2022-09-23T08:13:34;14.90;57.80
66140;DHT22;52945;51.908;8.364;2022-09-23T08:16:35;15.00;58.00
66140;DHT22;52945;51.908;8.364;2022-09-23T08:19:36;15.20;56.90
66140;DHT22;52945;51.908;8.364;2022-09-23T08:22:36;15.40;57.70
66140;DHT22;52945;51.908;8.364;2022-09-23T08:25:37;15.60;57.00
66140;DHT22;52945;51.908;8.364;2022-09-23T08:28:38;15.90;56.20
66140;DHT22;52945;51.908;8.364;2022-09-23T08:31:38;16.10;55.40
66140;DHT22;52945;51.908;8.364;2022-09-23T08:34:39;16.30;55.30
66140;DHT22;52945;51.908;8.364;2022-09-23T08:37:39;16.60;55.20
66140;DHT22;52945;51.908;8.364;2022-09-23T08:40:43;17.00;54.30
66140;DHT22;52945;51.908;8.364;2022-09-23T08:44:36;17.30;53.20
66140;DHT22;52945;51.908;8.364;2022-09-23T08:47:33;17.90;51.00
66140;DHT22;52945;51.908;8.364;2022-09-23T08:50:49;18.20;50.20
66140;DHT22;52945;51.908;8.364;2022-09-23T08:53:51;18.60;48.70
66140;DHT22;52945;51.908;8.364;2022-09-23T08:56:54;18.70;47.90
66140;DHT22;52945;51.908;8.364;2022-09-23T08:59:56;18.90;48.10
66140;DHT22;52945;51.908;8.364;2022-09-23T09:02:58;19.00;47.70
66140;DHT22;52945;51.908;8.364;2022-09-23T09:05:59;19.30;47.60
66140;DHT22;52945;51.908;8.364;2022-09-23T09:09:01;19.60;46.70
66140;DHT22;52945;51.908;8.364;2022-09-23T09:12:16;19.90;45.40
66140;DHT22;52945;51.908;8.364;2022-09-23T09:15:23;20.20;45.00
66140;DHT22;52945;51.908;8.364;2022-09-23T09:18:29;20.40;44.90
66140;DHT22;52945;51.908;8.364;2022-09-23T09:21:35;20.70;44.20
66140;DHT22;52945;51.908;8.364;2022-09-23T09:24:39;20.90;43.60
66140;DHT22;52945;51.908;8.364;2022-09-23T09:27:40;21.10;42.70
66140;DHT22;52945;51.908;8.364;2022-09-23T09:30:42;21.20;42.50
66140;DHT22;52945;51.908;8.364;2022-09-23T09:33:52;21.20;42.90
66140;DHT22;52945;51.908;8.364;2022-09-23T09:37:12;21.30;43.00
66140;DHT22;52945;51.908;8.364;2022-09-23T09:40:15;21.20;42.90
66140;DHT22;52945;51.908;8.364;2022-09-23T09:43:19;21.30;42.50
66140;DHT22;52945;51.908;8.364;2022-09-23T09:46:48;21.30;42.30
66140;DHT22;52945;51.908;8.364;2022-09-23T09:49:55;21.30;42.30
66140;DHT22;52945;51.908;8.364;2022-09-23T09:56:32;21.50;42.20
66140;DHT22;52945;51.908;8.364;2022-09-23T09:59:34;21.60;41.70
66140;DHT22;52945;51.908;8.364;2022-09-23T10:02:36;21.50;41.30
66140;DHT22;52945;51.908;8.364;2022-09-23T10:05:50;21.50;41.50
66140;DHT22;52945;51.908;8.364;2022-09-23T10:12:24;21.50;41.90
66140;DHT22;52945;51.908;8.364;2022-09-23T10:15:30;21.70;41.40
66140;DHT22;52945;51.908;8.364;2022-09-23T10:21:53;21.40;41.80
66140;DHT22;52945;51.908;8.364;2022-09-23T10:25:05;21.40;42.30
66140;DHT22;52945;51.908;8.364;2022-09-23T10:31:39;21.50;41.70
66140;DHT22;52945;51.908;8.364;2022-09-23T10:34:44;21.40;41.60
66140;DHT22;52945;51.908;8.364;2022-09-23T10:40:48;21.30;42.20
66140;DHT22;52945;51.908;8.364;2022-09-23T10:59:29;21.30;41.70
66140;DHT22;52945;51.908;8.364;2022-09-23T11:25:46;21.40;41.60
66140;DHT22;52945;51.908;8.364;2022-09-23T11:32:16;21.50;42.10
66140;DHT22;52945;51.908;8.364;2022-09-23T11:38:48;21.40;42.10
66140;DHT22;52945;51.908;8.364;2022-09-23T11:41:54;21.50;41.70
66140;DHT22;52945;51.908;8.364;2022-09-23T11:45:16;21.40;41.30
66140;DHT22;52945;51.908;8.364;2022-09-23T11:48:47;21.40;41.00
66140;DHT22;52945;51.908;8.364;2022-09-23T11:52:07;21.40;41.90
66140;DHT22;52945;51.908;8.364;2022-09-23T11:55:18;21.40;41.30
66140;DHT22;52945;51.908;8.364;2022-09-23T11:58:25;21.40;41.10
66140;DHT22;52945;51.908;8.364;2022-09-23T12:01:33;21.50;41.20
66140;DHT22;52945;51.908;8.364;2022-09-23T12:04:43;21.50;41.50
66140;DHT22;52945;51.908;8.364;2022-09-23T12:08:04;21.50;41.30
66140;DHT22;52945;51.908;8.364;2022-09-23T12:28:14;21.50;41.20
66140;DHT22;52945;51.908;8.364;2022-09-23T12:31:18;21.50;41.00
66140;DHT22;52945;51.908;8.364;2022-09-23T12:34:28;21.60;40.80
66140;DHT22;52945;51.908;8.364;2022-09-23T12:37:35;21.70;40.80
66140;DHT22;52945;51.908;8.364;2022-09-23T12:40:37;21.80;40.50
66140;DHT22;52945;51.908;8.364;2022-09-23T12:43:50;21.90;39.40
66140;DHT22;52945;51.908;8.364;2022-09-23T12:56:59;22.20;38.60
66140;DHT22;52945;51.908;8.364;2022-09-23T13:03:11;22.40;38.60
66140;DHT22;52945;51.908;8.364;2022-09-23T13:06:40;22.40;38.00
66140;DHT22;52945;51.908;8.364;2022-09-23T13:09:44;22.40;37.80
66140;DHT22;52945;51.908;8.364;2022-09-23T13:12:46;22.50;37.60
66140;DHT22;52945;51.908;8.364;2022-09-23T13:15:47;22.60;37.70
66140;DHT22;52945;51.908;8.364;2022-09-23T13:18:58;22.70;38.00
66140;DHT22;52945;51.908;8.364;2022-09-23T13:22:07;22.80;37.00
66140;DHT22;52945;51.908;8.364;2022-09-23T13:25:18;22.90;37.10
66140;DHT22;52945;51.908;8.364;2022-09-23T13:31:28;23.10;35.50
66140;DHT22;52945;51.908;8.364;2022-09-23T13:34:32;23.10;35.30
66140;DHT22;52945;51.908;8.364;2022-09-23T13:37:44;23.10;35.50
66140;DHT22;52945;51.908;8.364;2022-09-23T13:40:46;23.20;35.30
66140;DHT22;52945;51.908;8.364;2022-09-23T13:43:53;23.20;35.40
66140;DHT22;52945;51.908;8.364;2022-09-23T13:46:59;23.10;36.00
66140;DHT22;52945;51.908;8.364;2022-09-23T13:50:00;23.10;36.00
66140;DHT22;52945;51.908;8.364;2022-09-23T13:53:06;23.10;35.20
66140;DHT22;52945;51.908;8.364;2022-09-23T13:56:13;23.00;35.40
66140;DHT22;52945;51.908;8.364;2022-09-23T13:59:28;22.80;35.90
66140;DHT22;52945;51.908;8.364;2022-09-23T14:02:29;22.80;36.10
66140;DHT22;52945;51.908;8.364;2022-09-23T14:05:33;22.80;36.30
66140;DHT22;52945;51.908;8.364;2022-09-23T14:08:38;22.70;36.00
66140;DHT22;52945;51.908;8.364;2022-09-23T14:11:38;22.70;36.60
66140;DHT22;52945;51.908;8.364;2022-09-23T14:14:40;22.70;36.40
66140;DHT22;52945;51.908;8.364;2022-09-23T14:17:48;22.70;36.60
66140;DHT22;52945;51.908;8.364;2022-09-23T14:20:50;22.60;36.80
66140;DHT22;52945;51.908;8.364;2022-09-23T14:23:50;22.60;36.90
66140;DHT22;52945;51.908;8.364;2022-09-23T14:29:57;22.30;36.90
66140;DHT22;52945;51.908;8.364;2022-09-23T14:32:59;22.20;36.90
66140;DHT22;52945;51.908;8.364;2022-09-23T14:36:18;22.10;37.10
66140;DHT22;52945;51.908;8.364;2022-09-23T14:39:37;22.10;37.30
66140;DHT22;52945;51.908;8.364;2022-09-23T14:42:40;22.00;37.70
66140;DHT22;52945;51.908;8.364;2022-09-23T14:45:48;22.00;38.00
66140;DHT22;52945;51.908;8.364;2022-09-23T14:49:13;22.00;37.40
66140;DHT22;52945;51.908;8.364;2022-09-23T14:52:15;21.90;37.80
66140;DHT22;52945;51.908;8.364;2022-09-23T14:55:17;21.90;37.70
66140;DHT22;52945;51.908;8.364;2022-09-23T14:58:20;21.90;38.20
66140;DHT22;52945;51.908;8.364;2022-09-23T15:04:31;21.90;38.40
66140;DHT22;52945;51.908;8.364;2022-09-23T15:07:35;21.80;38.40
66140;DHT22;52945;51.908;8.364;2022-09-23T15:10:38;21.80;38.10
66140;DHT22;52945;51.908;8.364;2022-09-23T15:13:41;21.80;38.40
66140;DHT22;52945;51.908;8.364;2022-09-23T15:16:45;21.80;38.30
66140;DHT22;52945;51.908;8.364;2022-09-23T15:19:53;21.70;39.10
66140;DHT22;52945;51.908;8.364;2022-09-23T15:22:56;21.80;38.50
66140;DHT22;52945;51.908;8.364;2022-09-23T15:25:56;21.80;38.80
66140;DHT22;52945;51.908;8.364;2022-09-23T15:28:57;21.80;39.40
66140;DHT22;52945;51.908;8.364;2022-09-23T15:31:58;21.70;39.70
66140;DHT22;52945;51.908;8.364;2022-09-23T15:34:59;21.70;39.50
66140;DHT22;52945;51.908;8.364;2022-09-23T15:38:00;21.70;39.00
66140;DHT22;52945;51.908;8.364;2022-09-23T15:41:02;21.70;39.00
66140;DHT22;52945;51.908;8.364;2022-09-23T15:44:17;21.70;39.00
66140;DHT22;52945;51.908;8.364;2022-09-23T15:47:18;21.60;39.30
66140;DHT22;52945;51.908;8.364;2022-09-23T15:50:20;21.60;39.70
66140;DHT22;52945;51.908;8.364;2022-09-23T15:53:24;21.60;40.10
66140;DHT22;52945;51.908;8.364;2022-09-23T15:56:25;21.60;40.50
66140;DHT22;52945;51.908;8.364;2022-09-23T15:59:27;21.50;40.90
66140;DHT22;52945;51.908;8.364;2022-09-23T16:02:30;21.50;40.60
66140;DHT22;52945;51.908;8.364;2022-09-23T16:05:36;21.50;40.90
66140;DHT22;52945;51.908;8.364;2022-09-23T16:08:37;21.40;41.00
66140;DHT22;52945;51.908;8.364;2022-09-23T16:11:41;21.40;41.30
66140;DHT22;52945;51.908;8.364;2022-09-23T16:14:42;21.30;42.50
66140;DHT22;52945;51.908;8.364;2022-09-23T16:17:43;21.30;42.10
66140;DHT22;52945;51.908;8.364;2022-09-23T16:20:45;21.30;42.10
66140;DHT22;52945;51.908;8.364;2022-09-23T16:23:47;21.30;42.90
66140;DHT22;52945;51.908;8.364;2022-09-23T16:26:49;21.20;43.20
66140;DHT22;52945;51.908;8.364;2022-09-23T16:29:50;21.20;43.30
66140;DHT22;52945;51.908;8.364;2022-09-23T16:32:50;21.20;43.80
66140;DHT22;52945;51.908;8.364;2022-09-23T16:35:51;21.20;44.40
66140;DHT22;52945;51.908;8.364;2022-09-23T16:38:52;21.20;44.10
66140;DHT22;52945;51.908;8.364;2022-09-23T16:41:56;21.10;44.90
66140;DHT22;52945;51.908;8.364;2022-09-23T16:44:57;21.10;44.80
66140;DHT22;52945;51.908;8.364;2022-09-23T16:47:58;21.10;44.90
66140;DHT22;52945;51.908;8.364;2022-09-23T16:51:03;21.00;45.30
66140;DHT22;52945;51.908;8.364;2022-09-23T16:54:09;21.00;45.40
66140;DHT22;52945;51.908;8.364;2022-09-23T16:57:10;20.90;45.30
66140;DHT22;52945;51.908;8.364;2022-09-23T17:00:13;20.90;45.70
66140;DHT22;52945;51.908;8.364;2022-09-23T17:03:33;20.80;46.60
66140;DHT22;52945;51.908;8.364;2022-09-23T17:06:44;20.80;46.60
66140;DHT22;52945;51.908;8.364;2022-09-23T17:09:45;20.80;46.60
66140;DHT22;52945;51.908;8.364;2022-09-23T17:12:46;20.70;47.00
66140;DHT22;52945;51.908;8.364;2022-09-23T17:15:46;20.70;47.70
66140;DHT22;52945;51.908;8.364;2022-09-23T17:18:47;20.70;47.60
66140;DHT22;52945;51.908;8.364;2022-09-23T17:21:47;20.60;47.80
66140;DHT22;52945;51.908;8.364;2022-09-23T17:24:48;20.60;47.80
66140;DHT22;52945;51.908;8.364;2022-09-23T17:27:49;20.50;48.60
66140;DHT22;52945;51.908;8.364;2022-09-23T17:30:57;20.50;48.70
66140;DHT22;52945;51.908;8.364;2022-09-23T17:33:58;20.30;48.80
66140;DHT22;52945;51.908;8.364;2022-09-23T17:36:58;20.30;49.20
66140;DHT22;52945;51.908;8.364;2022-09-23T17:39:59;20.30;49.30
66140;DHT22;52945;51.908;8.364;2022-09-23T17:43:00;20.20;49.40
66140;DHT22;52945;51.908;8.364;2022-09-23T17:46:12;20.20;49.80
66140;DHT22;52945;51.908;8.364;2022-09-23T17:49:15;20.20;50.10
66140;DHT22;52945;51.908;8.364;2022-09-23T17:52:18;20.20;49.80
66140;DHT22;52945;51.908;8.364;2022-09-23T17:55:18;20.10;49.90
66140;DHT22;52945;51.908;8.364;2022-09-23T17:58:23;20.00;49.80
66140;DHT22;52945;51.908;8.364;2022-09-23T18:01:24;20.00;49.80
66140;DHT22;52945;51.908;8.364;2022-09-23T18:04:25;19.90;50.40
66140;DHT22;52945;51.908;8.364;2022-09-23T18:07:25;19.90;50.80
66140;DHT22;52945;51.908;8.364;2022-09-23T18:10:29;19.90;50.60
66140;DHT22;52945;51.908;8.364;2022-09-23T18:13:30;19.80;50.80
66140;DHT22;52945;51.908;8.364;2022-09-23T18:16:34;19.80;50.80
66140;DHT22;52945;51.908;8.364;2022-09-23T18:19:35;19.80;51.10
66140;DHT22;52945;51.908;8.364;2022-09-23T18:22:35;19.70;51.20
66140;DHT22;52945;51.908;8.364;2022-09-23T18:25:36;19.70;51.10
66140;DHT22;52945;51.908;8.364;2022-09-23T18:28:36;19.70;50.90
66140;DHT22;52945;51.908;8.364;2022-09-23T18:31:37;19.60;51.20
66140;DHT22;52945;51.908;8.364;2022-09-23T18:34:38;19.60;51.20
66140;DHT22;52945;51.908;8.364;2022-09-23T18:37:39;19.60;51.40
66140;DHT22;52945;51.908;8.364;2022-09-23T18:40:49;19.50;51.40
66140;DHT22;52945;51.908;8.364;2022-09-23T18:43:50;19.50;51.60
66140;DHT22;52945;51.908;8.364;2022-09-23T18:46:50;19.50;51.60
66140;DHT22;52945;51.908;8.364;2022-09-23T18:49:51;19.50;51.80
66140;DHT22;52945;51.908;8.364;2022-09-23T18:53:10;19.40;51.70
66140;DHT22;52945;51.908;8.364;2022-09-23T18:56:13;19.40;51.80
66140;DHT22;52945;51.908;8.364;2022-09-23T18:59:17;19.40;52.50
66140;DHT22;52945;51.908;8.364;2022-09-23T19:02:19;19.30;52.10
66140;DHT22;52945;51.908;8.364;2022-09-23T19:05:20;19.30;52.10
66140;DHT22;52945;51.908;8.364;2022-09-23T19:08:20;19.20;52.30
66140;DHT22;52945;51.908;8.364;2022-09-23T19:11:21;19.20;52.90
66140;DHT22;52945;51.908;8.364;2022-09-23T19:14:23;19.20;53.00
66140;DHT22;52945;51.908;8.364;2022-09-23T19:17:23;19.20;53.30
66140;DHT22;52945;51.908;8.364;2022-09-23T19:20:24;19.20;53.60
66140;DHT22;52945;51.908;8.364;2022-09-23T19:23:26;19.10;53.80
66140;DHT22;52945;51.908;8.364;2022-09-23T19:26:29;19.10;54.10
66140;DHT22;52945;51.908;8.364;2022-09-23T19:29:31;19.10;54.00
66140;DHT22;52945;51.908;8.364;2022-09-23T19:32:32;19.10;53.80
66140;DHT22;52945;51.908;8.364;2022-09-23T19:35:35;19.00;54.00
66140;DHT22;52945;51.908;8.364;2022-09-23T19:38:36;19.00;54.30
66140;DHT22;52945;51.908;8.364;2022-09-23T19:41:37;19.00;54.70
66140;DHT22;52945;51.908;8.364;2022-09-23T19:44:38;18.90;55.10
66140;DHT22;52945;51.908;8.364;2022-09-23T19:47:40;18.90;55.30
66140;DHT22;52945;51.908;8.364;2022-09-23T19:50:40;18.90;55.10
66140;DHT22;52945;51.908;8.364;2022-09-23T19:53:41;18.80;55.40
66140;DHT22;52945;51.908;8.364;2022-09-23T19:56:42;18.80;55.60
66140;DHT22;52945;51.908;8.364;2022-09-23T19:59:43;18.80;55.70
66140;DHT22;52945;51.908;8.364;2022-09-23T20:02:44;18.80;55.70
66140;DHT22;52945;51.908;8.364;2022-09-23T20:05:55;18.70;56.10
66140;DHT22;52945;51.908;8.364;2022-09-23T20:08:57;18.70;57.50
66140;DHT22;52945;51.908;8.364;2022-09-23T20:11:58;18.70;58.80
66140;DHT22;52945;51.908;8.364;2022-09-23T20:15:03;18.70;59.50
66140;DHT22;52945;51.908;8.364;2022-09-23T20:18:04;18.70;60.00
66140;DHT22;52945;51.908;8.364;2022-09-23T20:21:07;18.70;59.60
66140;DHT22;52945;51.908;8.364;2022-09-23T20:24:08;18.70;59.70
66140;DHT22;52945;51.908;8.364;2022-09-23T20:27:11;18.70;60.90
66140;DHT22;52945;51.908;8.364;2022-09-23T20:30:11;18.60;60.90
66140;DHT22;52945;51.908;8.364;2022-09-23T20:33:12;18.70;61.70
66140;DHT22;52945;51.908;8.364;2022-09-23T20:36:16;18.60;61.20
66140;DHT22;52945;51.908;8.364;2022-09-23T20:39:16;18.60;61.60
66140;DHT22;52945;51.908;8.364;2022-09-23T20:42:18;18.60;61.60
66140;DHT22;52945;51.908;8.364;2022-09-23T20:45:19;18.50;61.00
66140;DHT22;52945;51.908;8.364;2022-09-23T20:48:21;18.40;60.80
66140;DHT22;52945;51.908;8.364;2022-09-23T20:51:22;18.40;61.10
66140;DHT22;52945;51.908;8.364;2022-09-23T20:54:23;18.40;61.30
66140;DHT22;52945;51.908;8.364;2022-09-23T20:57:24;18.40;61.30
66140;DHT22;52945;51.908;8.364;2022-09-23T21:00:27;18.30;61.20
66140;DHT22;52945;51.908;8.364;2022-09-23T21:03:28;18.30;61.20
66140;DHT22;52945;51.908;8.364;2022-09-23T21:06:29;18.20;60.90
66140;DHT22;52945;51.908;8.364;2022-09-23T21:09:30;18.20;61.00
66140;DHT22;52945;51.908;8.364;2022-09-23T21:12:30;18.20;61.20
66140;DHT22;52945;51.908;8.364;2022-09-23T21:15:33;18.20;61.80
66140;DHT22;52945;51.908;8.364;2022-09-23T21:18:34;18.20;62.40
66140;DHT22;52945;51.908;8.364;2022-09-23T21:21:35;18.20;62.90
66140;DHT22;52945;51.908;8.364;2022-09-23T21:24:35;18.20;63.20
66140;DHT22;52945;51.908;8.364;2022-09-23T21:27:36;18.10;63.40
66140;DHT22;52945;51.908;8.364;2022-09-23T21:30:37;18.10;63.50
66140;DHT22;52945;51.908;8.364;2022-09-23T21:33:37;18.10;63.50
66140;DHT22;52945;51.908;8.364;2022-09-23T21:36:39;18.00;63.70
66140;DHT22;52945;51.908;8.364;2022-09-23T21:39:42;18.10;64.10
66140;DHT22;52945;51.908;8.364;2022-09-23T21:43:02;18.00;64.10